x

Canaveral 20 Nm East Of Cape Canaveral, Fl (41009) Wave Buoy

12:50am - Mon 22nd Dec 2014 All times are EST. -5 hours from GMT.

  • Sig Wave height 3.6ft
  • Swell Direction
  • Peak Period 4s
  • Average Period 4s
  • Wind
    16mph, 18mph gusts
  • Sea Temp 76°f
  • Air Temp 75°f
  • Sea Pressure 1017.1mb
  • Canaveral 20 Nm East Of Cape Canaveral, Fl
  • Canaveral 20 Nm East Of Cape Canaveral, Fl

More Historic Weather Station data

Upgrade to MSW Pro to gain access to the past 30 days of data for over 8000 Wavebouys and Weather Stations around the globe.

Join Pro

Comparision Forecast

View Surf forecast
   
Mon 12/22 12:50am 3.5ft 4s 4s 16 18 mph 1017.1mb 76f 75f
12:20am  -   -   -  18 20 mph 1016.7mb 76f 75f
Sun 12/21 11:50pm 3.5ft 8s 5s 16 20 mph 1017mb 76f 75f
11:20pm  -   -   -  16 18 mph 1017.2mb 76f 75f
10:50pm 3ft 8s 5s 16 18 mph 1017.5mb 76f 75f
10:20pm  -   -   -  13 16 mph 1017.7mb 76f 75f
9:50pm 3ft 7s 5s 13 16 mph 1017.8mb 76f 75f
9:20pm  -   -   -  13 16 mph 1017.8mb 76f 75f
8:50pm 2.5ft 10s 4s 13 18 mph 1017.7mb 76f 75f
8:20pm  -   -   -  16 18 mph 1017.5mb 76f 75f
7:50pm 2.5ft 8s 5s 13 16 mph 1017.7mb 76f 75f
7:20pm  -   -   -  13 16 mph 1017.6mb 76f 75f
6:50pm 2.5ft 8s 5s 11 13 mph 1017.4mb 76f 75f
6:20pm  -   -   -  13
mph
1017.3mb 76f 75f
5:50pm 2.5ft 8s 5s 11
mph
1017.2mb 76f 75f
5:20pm  -   -   -  9 11 mph 1017.2mb 76f 75f
4:50pm 2.5ft 8s 5s 11 13 mph 1017mb 76f 75f
4:20pm  -   -   -  11
mph
1017.1mb 76f 74f
3:50pm 2.5ft 8s 5s 11 13 mph 1017.1mb 76f 74f
3:20pm  -   -   -  11 13 mph 1017.1mb 76f 74f
2:50pm 2.5ft 10s 5s 11 13 mph 1017.1mb 76f 74f
2:20pm  -   -   -  9 11 mph 1017.4mb 76f 74f
1:50pm 2ft 10s 5s 9
mph
1017.6mb 76f 74f
1:20pm  -   -   -  9 11 mph 1017.4mb 76f 73f
12:50pm 2ft 9s 5s 7 9 mph 1018.3mb 76f 72f
12:20pm  -   -   -  4 7 mph 1018.8mb 76f 72f
11:50am 2ft 10s 5s 4 7 mph 1019.4mb 76f 71f
11:20am  -   -   -  7
mph
1019.9mb 76f 71f
10:50am 2ft 10s 5s 7 9 mph 1020.3mb 76f 72f
10:20am  -   -   -  7 9 mph 1020.4mb 76f 71f
9:50am 2ft 10s 5s 4 7 mph 1020.2mb 76f 71f
9:20am  -   -   -  4 7 mph 1020.1mb 76f 71f
8:50am 2ft 10s 5s 7 9 mph 1019.6mb 76f 71f
7:50am 1.6ft 11s 5s 7 9 mph 1019.1mb 76f 71f
7:20am  -   -   -  7 9 mph 1019.1mb 76f 71f
6:50am 1.6ft 9s 5s 9 11 mph 1018.8mb 76f 71f
6:20am  -   -   -  9 11 mph 1018.7mb 76f 71f
5:50am 1.6ft 10s 5s 9 11 mph 1018.4mb 76f 71f
5:20am  -   -   -  9
mph
1018.2mb 76f 71f
4:50am 1.6ft 11s 5s 9 11 mph 1018mb 76f 71f
4:20am  -   -   -  9 11 mph 1018.2mb 76f 72f
3:50am 1.6ft 10s 5s 7 11 mph 1017.9mb 76f 73f
3:20am  -   -   -  7 9 mph 1018.1mb 76f 73f
2:50am 2ft 10s 5s 7 9 mph 1018.2mb 76f 73f
2:20am  -   -   -  9 11 mph 1018.5mb 76f 74f
1:50am 1.6ft 11s 5s 9 11 mph 1018.6mb 76f 74f
1:20am  -   -   -  9 11 mph 1018.7mb 76f 74f
12:50am 1.6ft 11s 6s 11 13 mph 1018.7mb 76f 74f
12:20am  -   -   -  9 11 mph 1019.3mb 76f 74f
Sat 12/20 11:50pm 1.6ft 11s 7s 7 9 mph 1019.4mb 76f 74f
11:20pm  -   -   -  7 9 mph 1019.5mb 76f 74f
10:50pm 1.6ft 9s 7s 9 11 mph 1019.5mb 76f 74f
10:20pm  -   -   -  11 13 mph 1019.3mb 76f 74f
9:50pm 1.6ft 10s 7s 9 11 mph 1019.4mb 76f 74f
9:20pm  -   -   -  9
mph
1019.2mb 76f 74f
8:50pm 1.6ft 11s 7s 9
mph
1019mb 76f 73f
8:20pm  -   -   -  7 9 mph 1019.1mb 76f 73f
7:50pm 1.6ft 11s 8s 7
mph
1019mb 76f 73f
7:20pm  -   -   -  7 9 mph 1018.9mb 76f 73f
6:50pm 1.6ft 11s 7s 7
mph
1019.1mb 76f 73f
6:20pm  -   -   -  7 9 mph 1018.5mb 76f 72f
5:50pm 1.6ft 9s 7s 7 9 mph 1018.5mb 76f 72f
5:20pm  -   -   -  7 9 mph 1018.3mb 76f 72f
4:50pm 1.6ft 10s 7s 4 7 mph 1018.4mb 76f 72f
4:20pm  -   -   -   -  2 mph 1018.3mb 76f 72f
3:50pm 1.6ft 10s 7s  -  2 mph 1018.1mb 76f 72f
3:20pm  -   -   -  2 4 mph 1018.3mb 76f 72f
2:50pm 1.6ft 10s 6s 4
mph
1018.3mb 76f 72f
2:20pm  -   -   -  4 7 mph 1018.1mb 76f 71f
1:50pm 1.6ft 9s 6s 4 7 mph 1018mb 76f 71f
1:20pm  -   -   -  4 7 mph 1018.3mb 76f 71f
12:50pm 1.6ft 11s 6s 4 7 mph 1018.8mb 75f 71f
12:20pm  -   -   -  9 11 mph 1019.6mb 75f 71f
11:50am 1.6ft 11s 7s 9 11 mph 1020.1mb 75f 71f
11:20am  -   -   -  9 11 mph 1020.4mb 75f 71f
10:50am 1.6ft 11s 7s 7 9 mph 1020.4mb 75f 71f
10:20am  -   -   -  9
mph
1020.5mb 75f 71f
9:50am 1.3ft 11s 7s 9
mph
1020.1mb 75f 71f
9:20am  -   -   -  9 11 mph 1019.8mb 75f 71f
8:50am 1.3ft 10s 7s 11 13 mph 1019.8mb 75f 72f
8:20am  -   -   -  4 7 mph 1019.7mb 75f 73f
7:50am 1.6ft 11s 7s 4 7 mph 1019.5mb 75f 73f
7:20am  -   -   -  4 7 mph 1019.2mb 75f 72f
6:50am 1.3ft 11s 7s 7 9 mph 1019mb 75f 72f
6:20am  -   -   -  4 7 mph 1018.8mb 75f 72f
5:50am 1.3ft 11s 6s 7 9 mph 1018.1mb 75f 72f
5:20am  -   -   -  7 11 mph 1017.8mb 75f 72f
4:50am 1.3ft 11s 7s 7 9 mph 1017.7mb 75f 72f
4:20am  -   -   -  7 9 mph 1017.8mb 75f 72f
3:50am 1.3ft 10s 6s 7 9 mph 1018mb 75f 72f
3:20am  -   -   -  7
mph
1017.8mb 75f 72f
2:50am 1.3ft 11s 7s 7 9 mph 1018mb 75f 72f
2:20am  -   -   -  7 9 mph 1018.3mb 75f 72f
1:50am 1.6ft 11s 6s 7 9 mph 1018.5mb 75f 72f
1:20am  -   -   -  7 9 mph 1018.5mb 75f 72f
12:50am 1.6ft 11s 6s 7 9 mph 1018.6mb 75f 72f
12:20am  -   -   -  7 11 mph 1018.9mb 75f 72f
Fri 12/19 11:50pm 1.3ft 11s 6s 7 9 mph 1019.2mb 75f 71f
11:20pm  -   -   -  7 9 mph 1019.4mb 75f 71f
10:50pm 1.3ft 10s 5s 7 11 mph 1019.3mb 75f 71f
10:20pm  -   -   -  7 11 mph 1019.4mb 75f 71f
9:50pm 1.3ft 11s 5s 4 7 mph 1019.3mb 75f 71f
9:20pm  -   -   -  7 9 mph 1019.3mb 75f 71f
8:50pm 1.3ft 11s 5s 2 4 mph 1019.5mb 75f 70f
8:20pm  -   -   -  2 4 mph 1019.1mb 75f 70f
7:50pm 1.6ft 11s 5s 4 9 mph 1019.1mb 76f 70f
7:20pm  -   -   -   -  2 mph 1019mb 76f 70f
6:50pm 1.3ft 11s 5s 4
mph
1019mb 76f 70f
6:20pm  -   -   -  2 4 mph 1018.9mb 76f 69f
5:50pm 1.3ft 10s 5s 4 7 mph 1018.8mb 76f 69f
5:20pm  -   -   -   -  2 mph 1018.3mb 76f 70f
4:50pm 1.3ft 10s 5s  -  2 mph 1018.2mb 76f 70f
4:20pm  -   -   -  4 7 mph 1018.2mb 76f 70f
3:50pm 1.3ft 10s 5s 2 4 mph 1018.2mb 76f 70f
3:20pm  -   -   -  2
mph
1018.3mb 76f 69f
2:50pm 1.3ft 10s 5s 2 4 mph 1018.5mb 76f 69f
2:20pm  -   -   -  2 4 mph 1018.7mb 76f 69f
1:50pm 1.3ft 10s 5s 2 4 mph 1018.6mb 76f 69f
1:20pm  -   -   -  4 7 mph 1019.1mb 76f 69f
12:50pm 1.3ft 10s 5s 4 7 mph 1019.4mb 76f 69f
12:20pm  -   -   -  7 9 mph 1019.9mb 76f 69f
11:50am 1.6ft 10s 5s 4 9 mph 1020.2mb 76f 68f
11:20am  -   -   -  4 9 mph 1020.6mb 76f 68f
10:50am 1.6ft 10s 5s 4 7 mph 1020.9mb 76f 68f
10:20am  -   -   -  7 9 mph 1021.1mb 76f 68f
9:50am 1.6ft 10s 5s 7 9 mph 1021.2mb 76f 68f
9:20am  -   -   -  7 11 mph 1020.6mb 76f 67f
8:50am 1.6ft 10s 5s 9 11 mph 1020.4mb 76f 67f
8:20am  -   -   -  7 11 mph 1020mb 76f 67f
7:20am  -   -   -  4 9 mph 1019.2mb 76f 67f
6:50am 1.6ft 10s 5s 4 9 mph 1018.9mb 76f 66f
6:20am  -   -   -  9 11 mph 1018.7mb 76f 66f
5:50am 1.6ft 10s 5s 4 7 mph 1018.6mb 76f 66f
5:20am  -   -   -  7 11 mph 1018.8mb 76f 66f
4:50am 1.6ft 10s 5s 9 11 mph 1018.9mb 76f 66f
4:20am  -   -   -  7 11 mph 1018.7mb 76f 66f
3:50am 1.6ft 10s 4s 9 13 mph 1019.1mb 76f 66f
3:20am  -   -   -  11 13 mph 1019.2mb 76f 67f
2:50am 1.6ft 10s 4s 9 13 mph 1019.2mb 76f 66f
2:20am  -   -   -  9 11 mph 1019.3mb 76f 66f
1:50am 1.6ft 11s 5s 9 11 mph 1019.4mb 76f 66f
1:20am  -   -   -  9 13 mph 1019.6mb 76f 67f
12:50am 1.6ft 11s 5s 7 11 mph 1019.3mb 76f 67f
12:20am  -   -   -  7 11 mph 1019.7mb 76f 67f
Thu 12/18 11:50pm 1.6ft 10s 5s 9 11 mph 1020.1mb 76f 67f
11:20pm  -   -   -  7 11 mph 1020.4mb 76f 67f
10:50pm 1.6ft 10s 5s 4 9 mph 1020.3mb 76f 67f
10:20pm  -   -   -  4 7 mph 1020mb 76f 66f
9:50pm 1.6ft 10s 5s 7 9 mph 1020.1mb 76f 66f
9:20pm  -   -   -  7 9 mph 1019.8mb 76f 66f
8:50pm 1.6ft 10s 4s 4 9 mph 1019.9mb 76f 66f
8:20pm  -   -   -  7 9 mph 1019.8mb 76f 66f
7:50pm 1.6ft 10s 5s 7 9 mph 1019.8mb 76f 66f
7:20pm  -   -   -  4 9 mph 1019.8mb 76f 66f
6:50pm 1.6ft 10s 4s 9 13 mph 1019.9mb 76f 66f
6:20pm  -   -   -  9 11 mph 1019.5mb 76f 66f
5:50pm 1.6ft 11s 4s 9 13 mph 1019.5mb 76f 66f
5:20pm  -   -   -  9 13 mph 1019.3mb 76f 66f
4:50pm 1.6ft 10s 4s 9 11 mph 1019.1mb 76f 66f
4:20pm  -   -   -  9 13 mph 1019mb 76f 66f
3:50pm 1.6ft 10s 4s 11 16 mph 1019.1mb 76f 66f
3:20pm  -   -   -  9 11 mph 1019.3mb 76f 66f
2:50pm 1.6ft 10s 4s 9 13 mph 1019.2mb 76f 66f
2:20pm  -   -   -  11 16 mph 1019.3mb 76f 66f
1:50pm 1.6ft 10s 4s 11 18 mph 1019.5mb 76f 66f
1:20pm  -   -   -  11 16 mph 1020.1mb 76f 66f
12:50pm 1.6ft 10s 4s 13 18 mph 1020.5mb 76f 66f
12:20pm  -   -   -  9 13 mph 1021mb 75f 66f
11:50am 1.6ft 10s 4s 9 13 mph 1021.3mb 75f 66f
11:20am  -   -   -  9 13 mph 1021.6mb 75f 66f
10:50am 1.6ft 11s 4s 9 13 mph 1021.8mb 75f 65f
10:20am  -   -   -  7 11 mph 1021.9mb 75f 65f
9:50am 1.6ft 11s 5s 9 13 mph 1022mb 75f 65f
9:20am  -   -   -  9 11 mph 1021.8mb 75f 65f
8:50am 2ft 10s 5s 7 9 mph 1021.3mb 75f 65f
7:50am 2ft 10s 4s 9 11 mph 1020.4mb 75f 65f
7:20am  -   -   -  11 13 mph 1020.3mb 75f 64f